createdAt,value
2019-01-24T00:01:54.007Z,34.87
2019-01-24T00:04:24.353Z,36.33
2019-01-24T00:06:54.667Z,36.30
2019-01-24T00:09:25.110Z,36.73
2019-01-24T00:11:55.441Z,37.30
2019-01-24T00:14:25.813Z,35.03
2019-01-24T00:16:56.325Z,35.67
2019-01-24T00:19:26.756Z,37.50
2019-01-24T00:21:57.052Z,36.60
2019-01-24T00:24:27.386Z,36.87
2019-01-24T00:26:57.699Z,36.70
2019-01-24T00:29:28.018Z,36.17
2019-01-24T00:31:58.350Z,35.93
2019-01-24T00:34:28.673Z,35.83
2019-01-24T00:36:58.977Z,36.83
2019-01-24T00:39:29.327Z,34.50
2019-01-24T00:41:59.662Z,34.07
2019-01-24T00:44:30.915Z,35.70
2019-01-24T00:47:01.491Z,35.67
2019-01-24T00:49:31.852Z,36.07
2019-01-24T00:52:02.215Z,35.47
2019-01-24T00:54:32.608Z,36.33
2019-01-24T00:57:02.924Z,35.07
2019-01-24T00:59:33.698Z,35.63
2019-01-24T01:02:04.262Z,35.57
2019-01-24T01:04:34.630Z,35.40
2019-01-24T01:07:06.443Z,36.10
2019-01-24T01:09:37.222Z,36.60
2019-01-24T01:12:08.416Z,33.70
2019-01-24T01:14:39.095Z,34.77
2019-01-24T01:17:09.590Z,33.73
2019-01-24T01:19:39.933Z,33.63
2019-01-24T01:22:10.282Z,35.70
2019-01-24T01:24:40.616Z,33.57
2019-01-24T01:27:11.277Z,34.30
2019-01-24T01:29:41.843Z,33.70
2019-01-24T01:32:12.349Z,35.93
2019-01-24T01:34:42.851Z,33.43
2019-01-24T01:37:14.302Z,33.70
2019-01-24T01:39:44.723Z,32.87
2019-01-24T01:42:15.017Z,33.60
2019-01-24T01:44:45.410Z,34.80
2019-01-24T01:47:15.744Z,36.87
2019-01-24T01:49:46.098Z,35.77
2019-01-24T01:52:16.393Z,34.97
2019-01-24T01:54:46.745Z,36.03
2019-01-24T01:57:18.129Z,35.03
2019-01-24T01:59:48.452Z,35.67
2019-01-24T02:02:18.783Z,37.17
2019-01-24T02:04:49.312Z,37.73
2019-01-24T02:07:19.707Z,35.00
2019-01-24T02:09:50.283Z,38.07
2019-01-24T02:12:20.687Z,37.63
2019-01-24T02:14:51.394Z,37.83
2019-01-24T02:17:21.823Z,38.27
2019-01-24T02:19:52.789Z,38.40
2019-01-24T02:22:23.418Z,38.33
2019-01-24T02:24:54.285Z,38.93
2019-01-24T02:27:24.797Z,38.80
2019-01-24T02:29:55.439Z,38.90
2019-01-24T02:32:26.061Z,40.27
2019-01-24T02:34:56.403Z,38.17
2019-01-24T02:37:26.849Z,40.40
2019-01-24T02:39:57.188Z,38.20
2019-01-24T02:42:27.911Z,40.30
2019-01-24T02:44:58.369Z,38.53
2019-01-24T02:47:28.715Z,40.77
2019-01-24T02:49:59.073Z,40.23
2019-01-24T02:52:29.421Z,39.37
2019-01-24T02:54:59.770Z,39.67
2019-01-24T02:57:30.815Z,40.88
2019-01-24T03:00:01.137Z,40.90
2019-01-24T03:02:31.444Z,41.20
2019-01-24T03:05:01.774Z,42.27
2019-01-24T03:07:32.068Z,41.93
2019-01-24T03:10:02.400Z,42.00
2019-01-24T03:12:33.069Z,40.90
2019-01-24T03:15:03.416Z,41.83
2019-01-24T03:17:33.789Z,39.13
2019-01-24T03:20:04.730Z,39.70
2019-01-24T03:22:35.020Z,39.63
2019-01-24T03:25:07.290Z,38.63
2019-01-24T03:27:37.686Z,38.90
2019-01-24T03:30:11.068Z,37.63
2019-01-24T03:32:41.366Z,38.37
2019-01-24T03:35:14.957Z,38.33
2019-01-24T03:37:45.345Z,38.23
2019-01-24T03:40:16.020Z,37.03
2019-01-24T03:42:46.336Z,38.87
2019-01-24T03:45:17.229Z,39.37
2019-01-24T03:47:47.568Z,37.77
2019-01-24T03:50:19.592Z,38.30
2019-01-24T03:52:51.304Z,38.43
2019-01-24T03:55:22.625Z,37.90
2019-01-24T03:57:52.927Z,38.60
2019-01-24T04:00:24.970Z,38.53
2019-01-24T04:02:55.268Z,38.27
2019-01-24T04:05:25.630Z,36.93
2019-01-24T04:07:56.031Z,36.60
2019-01-24T04:10:26.365Z,35.83
2019-01-24T04:12:56.668Z,36.60
2019-01-24T04:15:27.295Z,35.83
2019-01-24T04:17:57.590Z,35.40
2019-01-24T04:20:28.044Z,35.23
2019-01-24T04:22:58.431Z,36.17
2019-01-24T04:25:28.895Z,34.63
2019-01-24T04:27:59.277Z,35.03
2019-01-24T04:30:29.786Z,35.60
2019-01-24T04:33:00.289Z,37.30
2019-01-24T04:35:30.621Z,40.77
2019-01-24T04:38:00.932Z,38.93
2019-01-24T04:40:31.273Z,36.20
2019-01-24T04:43:01.587Z,37.07
2019-01-24T04:45:32.599Z,36.60
2019-01-24T04:48:02.874Z,36.33
2019-01-24T04:50:33.222Z,34.40
2019-01-24T04:53:03.514Z,35.17
2019-01-24T04:55:33.855Z,34.40
2019-01-24T04:58:04.158Z,34.97
2019-01-24T05:00:34.518Z,34.97
2019-01-24T05:03:04.881Z,34.50
2019-01-24T05:05:35.233Z,34.53
2019-01-24T05:08:05.538Z,35.03
2019-01-24T05:10:36.159Z,33.53
2019-01-24T05:13:06.583Z,34.00
2019-01-24T05:15:37.007Z,34.27
2019-01-24T05:18:07.865Z,34.73
2019-01-24T05:20:38.190Z,35.10
2019-01-24T05:23:08.516Z,33.20
2019-01-24T05:25:38.881Z,33.63
2019-01-24T05:28:09.198Z,34.13
2019-01-24T05:30:39.526Z,33.67
2019-01-24T05:33:09.866Z,33.10
2019-01-24T05:35:40.206Z,35.25
2019-01-24T05:38:11.622Z,33.33
2019-01-24T05:40:41.989Z,34.27
2019-01-24T05:43:12.298Z,34.90
2019-01-24T05:45:42.729Z,33.10
2019-01-24T05:48:13.086Z,35.27
2019-01-24T05:50:43.438Z,36.35
2019-01-24T05:53:13.903Z,35.73
2019-01-24T05:55:44.219Z,35.60
2019-01-24T05:58:14.577Z,35.43
2019-01-24T06:00:46.234Z,36.07
2019-01-24T06:03:16.538Z,36.50
2019-01-24T06:05:46.976Z,36.20
2019-01-24T06:08:18.193Z,36.03
2019-01-24T06:10:48.609Z,35.87
2019-01-24T06:13:18.967Z,35.73
2019-01-24T06:15:49.365Z,34.57
2019-01-24T06:18:19.704Z,37.37
2019-01-24T06:20:50.123Z,35.37
2019-01-24T06:23:20.483Z,35.03
2019-01-24T06:25:50.874Z,34.83
2019-01-24T06:28:21.252Z,36.70
2019-01-24T06:30:51.612Z,36.33
2019-01-24T06:33:21.909Z,34.30
2019-01-24T06:35:52.290Z,37.33
2019-01-24T06:38:22.617Z,34.50
2019-01-24T06:40:52.929Z,35.30
2019-01-24T06:43:23.250Z,36.63
2019-01-24T06:45:54.636Z,34.03
2019-01-24T06:48:24.965Z,35.33
2019-01-24T06:50:55.258Z,36.70
2019-01-24T06:53:25.603Z,36.33
2019-01-24T06:55:55.915Z,37.00
2019-01-24T06:58:26.244Z,35.60
2019-01-24T07:00:56.637Z,37.47
2019-01-24T07:03:26.972Z,38.63
2019-01-24T07:05:57.294Z,36.27
2019-01-24T07:08:27.645Z,38.53
2019-01-24T07:10:57.931Z,38.60
2019-01-24T07:13:28.254Z,37.67
2019-01-24T07:15:58.555Z,38.20
2019-01-24T07:18:28.957Z,37.43
2019-01-24T07:20:59.266Z,41.07
2019-01-24T07:23:29.600Z,43.63
2019-01-24T07:25:59.922Z,45.70
2019-01-24T07:28:30.248Z,47.00
2019-01-24T07:31:00.533Z,43.07
2019-01-24T07:33:30.977Z,38.17
2019-01-24T07:36:02.355Z,38.93
2019-01-24T07:38:32.937Z,38.23
2019-01-24T07:41:03.771Z,38.33
2019-01-24T07:43:34.078Z,39.43
2019-01-24T07:46:04.697Z,41.33
2019-01-24T07:48:35.002Z,43.43
2019-01-24T07:51:05.557Z,43.83
2019-01-24T07:53:35.854Z,41.37
2019-01-24T07:56:06.502Z,42.20
2019-01-24T07:58:36.931Z,41.83
2019-01-24T08:01:07.278Z,44.03
2019-01-24T08:03:37.632Z,41.43
2019-01-24T08:06:09.393Z,41.47
2019-01-24T08:08:39.834Z,43.03
2019-01-24T08:11:10.188Z,41.92
2019-01-24T08:13:40.594Z,40.93
2019-01-24T08:16:11.078Z,42.17
2019-01-24T08:18:41.336Z,39.47
2019-01-24T08:21:11.839Z,38.30
2019-01-24T08:23:42.142Z,38.50
2019-01-24T08:26:12.693Z,40.10
2019-01-24T08:28:42.969Z,39.37
2019-01-24T08:31:13.610Z,37.80
2019-01-24T08:33:43.888Z,38.47
2019-01-24T08:36:19.635Z,42.93
2019-01-24T08:38:54.581Z,44.37
2019-01-24T08:41:25.187Z,39.77
2019-01-24T08:43:55.734Z,40.75
2019-01-24T08:46:26.067Z,46.10
2019-01-24T08:48:56.687Z,40.63
2019-01-24T08:51:27.038Z,43.47
2019-01-24T08:53:57.480Z,40.00
2019-01-24T08:56:27.962Z,38.63
2019-01-24T08:58:58.458Z,37.67
2019-01-24T09:01:28.854Z,39.60
2019-01-24T09:03:59.189Z,37.33
2019-01-24T09:06:29.518Z,38.07
2019-01-24T09:08:59.879Z,38.73
2019-01-24T09:11:30.741Z,39.63
2019-01-24T09:14:01.083Z,40.23
2019-01-24T09:16:31.377Z,39.00
2019-01-24T09:19:01.875Z,37.77
2019-01-24T09:21:32.222Z,38.93
2019-01-24T09:24:02.583Z,38.23
2019-01-24T09:26:32.876Z,38.87
2019-01-24T09:29:03.285Z,38.77
2019-01-24T09:31:33.586Z,41.33
2019-01-24T09:34:03.930Z,44.27
2019-01-24T09:36:34.241Z,56.07
2019-01-24T09:39:08.000Z,56.03
2019-01-24T09:41:38.408Z,42.53
2019-01-24T09:44:08.766Z,42.00
2019-01-24T09:46:39.078Z,38.23
2019-01-24T09:49:09.436Z,41.53
2019-01-24T09:51:39.747Z,42.60
2019-01-24T09:54:10.095Z,42.67
2019-01-24T09:56:40.391Z,44.33
2019-01-24T09:59:10.725Z,43.97
2019-01-24T10:01:41.035Z,41.60
2019-01-24T10:04:11.361Z,39.50
2019-01-24T10:06:41.674Z,37.83
2019-01-24T10:09:13.162Z,38.57
2019-01-24T10:11:43.485Z,40.03
2019-01-24T10:14:13.823Z,38.30
2019-01-24T10:16:44.216Z,42.47
2019-01-24T10:19:14.553Z,40.50
2019-01-24T10:21:44.982Z,42.00
2019-01-24T10:24:15.338Z,40.73
2019-01-24T10:26:45.661Z,44.10
2019-01-24T10:29:16.070Z,45.90
2019-01-24T10:31:46.490Z,44.27
2019-01-24T10:34:16.988Z,43.53
2019-01-24T10:36:47.340Z,42.03
2019-01-24T10:39:17.672Z,37.47
2019-01-24T10:41:47.975Z,40.17
2019-01-24T10:44:18.314Z,40.13
2019-01-24T10:46:48.617Z,39.23
2019-01-24T10:49:18.961Z,40.03
2019-01-24T10:51:49.275Z,41.57
2019-01-24T10:54:19.619Z,40.40
2019-01-24T10:56:50.030Z,38.70
2019-01-24T10:59:20.360Z,39.23
2019-01-24T11:01:50.877Z,39.47
2019-01-24T11:04:21.157Z,37.50
2019-01-24T11:06:51.572Z,39.13
2019-01-24T11:09:22.090Z,38.77
2019-01-24T11:11:52.689Z,38.20
2019-01-24T11:14:23.033Z,38.13
2019-01-24T11:16:53.791Z,41.43
2019-01-24T11:19:24.172Z,38.33
2019-01-24T11:21:54.671Z,37.57
2019-01-24T11:24:25.067Z,37.90
2019-01-24T11:26:55.417Z,40.93
2019-01-24T11:29:25.783Z,40.20
2019-01-24T11:31:56.193Z,41.33
2019-01-24T11:34:26.647Z,39.23
2019-01-24T11:36:57.507Z,38.77
2019-01-24T11:39:27.854Z,38.70
2019-01-24T11:41:58.499Z,38.47
2019-01-24T11:44:29.818Z,40.77
2019-01-24T11:47:00.229Z,38.10
2019-01-24T11:49:30.656Z,40.20
2019-01-24T11:52:00.952Z,41.30
2019-01-24T11:54:31.294Z,38.83
2019-01-24T11:57:01.690Z,37.77
2019-01-24T11:59:32.088Z,38.50
2019-01-24T12:02:02.509Z,38.53
2019-01-24T12:04:32.870Z,38.30
2019-01-24T12:07:04.592Z,39.60
2019-01-24T12:09:34.936Z,39.40
2019-01-24T12:12:05.462Z,39.03
2019-01-24T12:14:35.801Z,40.33
2019-01-24T12:17:06.200Z,40.90
2019-01-24T12:19:36.610Z,41.93
2019-01-24T12:22:06.947Z,38.90
2019-01-24T12:24:37.296Z,41.13
2019-01-24T12:27:07.604Z,42.33
2019-01-24T12:29:37.945Z,43.27
2019-01-24T12:32:08.378Z,44.43
2019-01-24T12:34:38.746Z,45.47
2019-01-24T12:37:11.501Z,44.60
2019-01-24T12:39:41.113Z,45.03
2019-01-24T12:42:11.468Z,43.70
2019-01-24T12:44:41.792Z,43.47
2019-01-24T12:47:12.132Z,44.40
2019-01-24T12:49:42.473Z,39.87
2019-01-24T12:52:12.845Z,39.67
2019-01-24T12:54:43.224Z,38.67
2019-01-24T12:57:13.522Z,39.67
2019-01-24T12:59:43.908Z,37.50
2019-01-24T13:02:14.230Z,38.67
2019-01-24T13:04:44.576Z,40.10
2019-01-24T13:07:18.539Z,37.73
2019-01-24T13:09:46.890Z,37.87
2019-01-24T13:12:17.182Z,38.30
2019-01-24T13:14:47.764Z,40.17
2019-01-24T13:17:18.063Z,40.20
2019-01-24T13:19:48.838Z,40.23
2019-01-24T13:22:19.161Z,43.30
2019-01-24T13:24:49.540Z,39.83
2019-01-24T13:27:19.849Z,39.77
2019-01-24T13:29:50.218Z,40.10
2019-01-24T13:32:20.543Z,41.40
2019-01-24T13:34:50.950Z,46.10
2019-01-24T13:37:25.781Z,41.60
2019-01-24T13:39:53.327Z,40.83
2019-01-24T13:42:23.745Z,43.93
2019-01-24T13:44:54.089Z,42.57
2019-01-24T13:47:24.413Z,42.47
2019-01-24T13:49:54.916Z,40.67
2019-01-24T13:52:25.237Z,38.77
2019-01-24T13:54:55.841Z,41.17
2019-01-24T13:57:26.183Z,42.07
2019-01-24T13:59:56.505Z,38.97
2019-01-24T14:02:27.233Z,36.93
2019-01-24T14:04:57.650Z,38.83
2019-01-24T14:07:32.951Z,40.87
2019-01-24T14:09:59.994Z,38.87
2019-01-24T14:12:30.446Z,37.43
2019-01-24T14:15:00.998Z,38.23
2019-01-24T14:17:31.682Z,37.07
2019-01-24T14:20:02.053Z,37.60
2019-01-24T14:22:32.396Z,37.03
2019-01-24T14:25:02.881Z,38.30
2019-01-24T14:27:33.258Z,39.65
2019-01-24T14:30:03.962Z,37.50
2019-01-24T14:32:35.259Z,38.67
2019-01-24T14:35:05.962Z,40.60
2019-01-24T14:37:39.841Z,36.90
2019-01-24T14:40:09.368Z,39.73
2019-01-24T14:42:40.060Z,38.57
2019-01-24T14:45:13.615Z,36.60
2019-01-24T14:47:45.027Z,38.33
2019-01-24T14:50:18.743Z,48.00
2019-01-24T14:52:49.412Z,40.60
2019-01-24T14:55:20.133Z,39.00
2019-01-24T14:57:51.090Z,46.23
2019-01-24T15:00:28.294Z,40.73
2019-01-24T15:03:00.726Z,42.23
2019-01-24T15:05:31.636Z,39.57
2019-01-24T15:08:03.086Z,40.70
2019-01-24T15:10:34.335Z,39.57
2019-01-24T15:13:05.700Z,41.93
2019-01-24T15:15:36.231Z,39.43
2019-01-24T15:18:07.211Z,39.80
2019-01-24T15:20:37.954Z,41.20
2019-01-24T15:23:08.365Z,41.03
2019-01-24T15:25:38.875Z,41.17
2019-01-24T15:28:09.477Z,40.17
2019-01-24T15:30:40.144Z,43.73
2019-01-24T15:33:10.530Z,46.83
2019-01-24T15:35:40.974Z,42.60
2019-01-24T15:38:11.420Z,40.27
2019-01-24T15:40:42.208Z,43.20
2019-01-24T15:43:13.115Z,44.93
2019-01-24T15:45:43.960Z,42.53
2019-01-24T15:48:14.702Z,43.27
2019-01-24T15:50:45.881Z,43.63
2019-01-24T15:53:16.436Z,51.33
2019-01-24T15:55:46.906Z,46.47
2019-01-24T15:58:17.391Z,49.43
2019-01-24T16:00:48.142Z,44.07
2019-01-24T16:03:19.706Z,59.47
2019-01-24T16:05:50.744Z,73.20
2019-01-24T16:08:22.656Z,47.63
2019-01-24T16:10:53.948Z,52.33
2019-01-24T16:13:24.922Z,47.70
2019-01-24T16:15:55.536Z,46.07
2019-01-24T16:18:26.282Z,44.43
2019-01-24T16:20:57.410Z,52.80
2019-01-24T16:23:28.054Z,57.07
2019-01-24T16:25:59.190Z,48.70
2019-01-24T16:28:30.701Z,58.13
2019-01-24T16:31:03.089Z,50.90
2019-01-24T16:33:34.324Z,72.53
2019-01-24T16:36:05.704Z,47.17
2019-01-24T16:38:36.677Z,43.97
2019-01-24T16:41:08.082Z,43.83
2019-01-24T16:43:39.330Z,44.33
2019-01-24T16:46:11.021Z,44.30
2019-01-24T16:48:42.161Z,43.47
2019-01-24T16:51:13.792Z,41.90
2019-01-24T16:53:45.595Z,40.63
2019-01-24T16:56:17.310Z,41.33
2019-01-24T16:58:49.080Z,42.33
2019-01-24T17:01:22.922Z,42.67
2019-01-24T17:03:55.010Z,45.37
2019-01-24T17:06:26.512Z,44.10
2019-01-24T17:08:59.018Z,44.53
2019-01-24T17:11:30.442Z,41.93
2019-01-24T17:14:01.729Z,40.60
2019-01-24T17:16:33.277Z,44.35
2019-01-24T17:19:05.882Z,45.83
2019-01-24T17:21:37.710Z,43.87
2019-01-24T17:24:09.048Z,41.90
2019-01-24T17:26:40.189Z,44.57
2019-01-24T17:29:11.472Z,43.17
2019-01-24T17:31:43.194Z,43.20
2019-01-24T17:37:06.563Z,44.50
2019-01-24T17:39:38.170Z,45.40
2019-01-24T17:42:09.939Z,45.57
2019-01-24T17:44:41.277Z,44.42
2019-01-24T17:47:12.682Z,43.17
2019-01-24T17:49:44.778Z,44.43
2019-01-24T17:52:16.716Z,43.83
2019-01-24T17:54:48.279Z,44.73
2019-01-24T17:57:21.480Z,45.47
2019-01-24T17:59:52.881Z,42.23
2019-01-24T18:02:24.280Z,43.83
2019-01-24T18:04:55.258Z,48.47
2019-01-24T18:07:26.829Z,43.73
2019-01-24T18:09:58.631Z,41.97
2019-01-24T18:12:30.750Z,49.10
2019-01-24T18:15:02.356Z,52.23
2019-01-24T18:17:34.314Z,46.07
2019-01-24T18:20:07.843Z,43.07
2019-01-24T18:22:40.549Z,43.20
2019-01-24T18:25:12.891Z,41.50
2019-01-24T18:27:45.058Z,47.90
2019-01-24T18:30:22.105Z,40.97
2019-01-24T18:32:54.753Z,43.47
2019-01-24T18:35:27.902Z,44.80
2019-01-24T18:38:00.358Z,47.03
2019-01-24T18:40:32.346Z,47.37
2019-01-24T18:43:04.577Z,46.23
2019-01-24T18:45:39.856Z,47.97
2019-01-24T18:48:12.174Z,44.77
2019-01-24T18:50:44.410Z,52.03
2019-01-24T18:53:16.615Z,50.50
2019-01-24T18:55:48.854Z,46.13
2019-01-24T18:58:21.470Z,48.30
2019-01-24T19:00:54.214Z,48.50
2019-01-24T19:03:26.628Z,47.60
2019-01-24T19:05:59.034Z,46.03
2019-01-24T19:08:32.297Z,45.67
2019-01-24T19:11:04.833Z,43.70
2019-01-24T19:13:36.629Z,49.83
2019-01-24T19:16:10.534Z,44.57
2019-01-24T19:18:42.938Z,44.87
2019-01-24T19:21:15.201Z,43.47
2019-01-24T19:23:47.560Z,42.03
2019-01-24T19:26:19.586Z,41.43
2019-01-24T19:28:51.814Z,41.13
2019-01-24T19:31:23.537Z,38.63
2019-01-24T19:33:56.144Z,38.00
2019-01-24T19:36:28.684Z,38.20
2019-01-24T19:39:00.950Z,37.13
2019-01-24T19:41:34.449Z,40.70
2019-01-24T19:44:06.970Z,41.13
2019-01-24T19:46:39.385Z,42.10
2019-01-24T19:49:11.726Z,36.97
2019-01-24T19:51:44.354Z,39.27
2019-01-24T19:54:16.404Z,40.43
2019-01-24T19:56:49.209Z,39.10
2019-01-24T19:59:21.544Z,37.33
2019-01-24T20:01:53.552Z,38.70
2019-01-24T20:04:25.797Z,38.40
2019-01-24T20:06:58.212Z,38.37
2019-01-24T20:09:30.503Z,38.20
2019-01-24T20:12:02.947Z,39.55
2019-01-24T20:14:34.654Z,40.40
2019-01-24T20:17:06.885Z,38.80
2019-01-24T20:19:39.015Z,37.60
2019-01-24T20:22:11.221Z,40.13
2019-01-24T20:24:43.163Z,39.78
2019-01-24T20:27:15.662Z,40.70
2019-01-24T20:29:48.051Z,38.13
2019-01-24T20:32:20.339Z,38.37
2019-01-24T20:34:53.035Z,39.13
2019-01-24T20:37:25.354Z,37.23
2019-01-24T20:39:58.609Z,36.80
2019-01-24T20:42:30.831Z,38.07
2019-01-24T20:45:02.968Z,37.40
2019-01-24T20:47:35.967Z,36.73
2019-01-24T20:50:09.362Z,38.00
2019-01-24T20:52:41.658Z,36.93
2019-01-24T20:55:14.197Z,39.43
2019-01-24T20:57:46.102Z,37.47
2019-01-24T21:00:21.268Z,38.67
2019-01-24T21:02:53.678Z,38.40
2019-01-24T21:05:27.593Z,37.67
2019-01-24T21:07:59.954Z,37.73
2019-01-24T21:10:31.947Z,39.10
2019-01-24T21:13:03.989Z,39.67
2019-01-24T21:15:36.081Z,36.97
2019-01-24T21:18:08.078Z,38.93
2019-01-24T21:20:40.078Z,40.33
2019-01-24T21:23:11.802Z,40.57
2019-01-24T21:25:43.705Z,43.47
2019-01-24T21:28:15.185Z,40.80
2019-01-24T21:30:46.233Z,42.07
2019-01-24T21:33:17.568Z,40.00
2019-01-24T21:35:48.520Z,39.80
2019-01-24T21:38:19.544Z,40.23
2019-01-24T21:40:50.350Z,47.83
2019-01-24T21:43:21.237Z,42.23
2019-01-24T21:45:52.033Z,41.60
2019-01-24T21:48:22.614Z,47.40
2019-01-24T21:50:53.122Z,46.83
2019-01-24T21:53:24.012Z,43.00
2019-01-24T21:55:54.709Z,44.00
2019-01-24T21:58:25.192Z,45.43
2019-01-24T22:00:55.697Z,43.40
2019-01-24T22:03:27.806Z,45.13
2019-01-24T22:05:58.624Z,43.27
2019-01-24T22:08:29.162Z,42.53
2019-01-24T22:10:59.646Z,42.80
2019-01-24T22:13:30.023Z,41.33
2019-01-24T22:16:01.314Z,39.23
2019-01-24T22:18:31.669Z,42.63
2019-01-24T22:21:01.992Z,40.47
2019-01-24T22:23:32.338Z,41.33
2019-01-24T22:26:02.650Z,43.37
2019-01-24T22:28:32.985Z,43.40
2019-01-24T22:31:03.901Z,44.10
2019-01-24T22:33:34.262Z,44.50
2019-01-24T22:36:04.690Z,44.27
2019-01-24T22:38:35.059Z,44.73
2019-01-24T22:41:06.119Z,47.83
2019-01-24T22:43:36.439Z,49.20
2019-01-24T22:46:07.017Z,49.50
2019-01-24T22:48:37.586Z,50.67
2019-01-24T22:51:07.997Z,49.40
2019-01-24T22:53:38.374Z,45.87
2019-01-24T22:56:09.010Z,69.23
2019-01-24T22:58:39.381Z,47.43
2019-01-24T23:01:28.533Z,44.40
2019-01-24T23:04:04.602Z,42.77
2019-01-24T23:06:35.031Z,44.33
2019-01-24T23:09:09.496Z,42.63
2019-01-24T23:11:39.799Z,43.27
2019-01-24T23:14:10.192Z,41.20
2019-01-24T23:16:40.523Z,42.67
2019-01-24T23:19:10.884Z,44.37
2019-01-24T23:21:41.218Z,42.73
2019-01-24T23:24:11.645Z,43.20
2019-01-24T23:26:41.994Z,42.38
2019-01-24T23:29:12.344Z,43.03
2019-01-24T23:31:42.696Z,43.33
2019-01-24T23:34:13.061Z,43.27
2019-01-24T23:36:43.400Z,43.43
2019-01-24T23:39:13.769Z,43.47
2019-01-24T23:41:44.073Z,42.58
2019-01-24T23:44:14.436Z,43.37
2019-01-24T23:46:44.780Z,42.40
2019-01-24T23:49:17.280Z,43.03
2019-01-24T23:51:49.664Z,43.38
2019-01-24T23:54:23.037Z,44.13
2019-01-24T23:56:55.809Z,49.97
2019-01-24T23:59:28.890Z,50.17
